Time;durP1;ratioP1;P1;durP2;ratioP2;P2;SDS_P1;SDS_P2;PMS_P1;PMS_P2;Temp;Humidity;BMP_temperature;BMP_pressure;BME280_temperature;BME280_humidity;BME280_pressure;Samples;Min_cycle;Max_cycle;Signal;HPM_P1;HPM_P2
2022/04/22 00:01:13;;;;;;;20.17;10.98;;;;;;;6.40;100.00;90723.69;5011492;28;20109;-64
2022/04/22 00:03:38;;;;;;;24.13;12.45;;;;;;;6.33;100.00;90728.56;5011379;28;20045;-64
2022/04/22 00:06:04;;;;;;;56.63;22.35;;;;;;;6.30;100.00;90729.09;5011395;28;20492;-64
2022/04/22 00:08:30;;;;;;;41.15;19.80;;;;;;;6.26;100.00;90736.81;5011384;28;20500;-64
2022/04/22 00:13:39;;;;;;;37.05;17.73;;;;;;;6.25;100.00;90723.91;5011216;28;20080;-64
2022/04/22 00:16:05;;;;;;;42.63;18.23;;;;;;;6.26;100.00;90736.81;5011254;28;20444;-64
2022/04/22 00:18:31;;;;;;;28.10;15.93;;;;;;;6.35;100.00;90738.84;5011439;28;20423;-65
2022/04/22 00:20:57;;;;;;;37.95;17.65;;;;;;;6.36;100.00;90729.84;5011294;28;20094;-66
2022/04/22 00:23:22;;;;;;;35.55;16.42;;;;;;;6.42;100.00;90733.97;5011166;28;20073;-64
2022/04/22 00:25:48;;;;;;;35.72;17.98;;;;;;;6.45;100.00;90722.81;5011229;28;20046;-64
2022/04/22 00:28:13;;;;;;;29.38;15.43;;;;;;;6.37;100.00;90715.53;5011294;28;20049;-64
2022/04/22 00:30:39;;;;;;;28.58;15.65;;;;;;;6.41;100.00;90717.31;5011189;28;20404;-64
2022/04/22 00:33:05;;;;;;;25.73;15.38;;;;;;;6.46;100.00;90721.72;5010967;28;20033;-64
2022/04/22 00:35:31;;;;;;;35.13;16.60;;;;;;;6.47;100.00;90708.25;5011200;28;20034;-64
2022/04/22 00:37:56;;;;;;;35.72;18.52;;;;;;;6.51;100.00;90708.47;5011149;28;20502;-65
2022/04/22 00:40:22;;;;;;;37.38;17.85;;;;;;;6.62;100.00;90723.06;5014004;28;20030;-65
2022/04/22 00:42:47;;;;;;;32.25;16.63;;;;;;;6.65;100.00;90721.72;5021520;28;20034;-66
2022/04/22 00:45:12;;;;;;;28.17;13.98;;;;;;;6.73;100.00;90713.13;5030712;28;20033;-66
2022/04/22 00:47:38;;;;;;;13.10;9.45;;;;;;;6.80;100.00;90722.25;5030700;28;20799;-66
2022/04/22 00:50:04;;;;;;;17.90;8.68;;;;;;;6.77;100.00;90722.81;5032126;28;20044;-66
2022/04/22 00:52:30;;;;;;;17.17;8.50;;;;;;;6.74;100.00;90719.97;5034261;28;20033;-66
2022/04/22 00:54:56;;;;;;;14.55;7.25;;;;;;;6.84;100.00;90719.81;5034431;28;20044;-66
2022/04/22 00:57:22;;;;;;;12.32;6.97;;;;;;;6.81;100.00;90725.69;5034024;28;20471;-67
2022/04/22 00:59:48;;;;;;;15.35;8.07;;;;;;;6.70;100.00;90722.41;5034170;28;20027;-66
2022/04/22 01:02:14;;;;;;;14.73;8.75;;;;;;;6.68;100.00;90711.34;5034164;28;20100;-67
2022/04/22 01:10:08;;;;;;;12.68;7.18;;;;;;;6.32;100.00;90687.38;5034345;28;20080;-66
2022/04/22 01:12:33;;;;;;;10.05;6.90;;;;;;;6.29;100.00;90687.91;5021563;28;20085;-66
2022/04/22 01:14:59;;;;;;;14.88;6.70;;;;;;;6.24;100.00;90670.28;5014346;28;20480;-65
2022/04/22 01:17:27;;;;;;;12.18;6.75;;;;;;;6.20;100.00;90677.22;5014296;28;20551;-65
2022/04/22 01:19:57;;;;;;;12.43;6.93;;;;;;;6.24;100.00;90675.56;5014058;28;20026;-65
2022/04/22 01:22:22;;;;;;;13.75;6.88;;;;;;;6.26;100.00;90667.38;5014038;28;20029;-65
2022/04/22 01:24:55;;;;;;;13.43;6.78;;;;;;;6.32;100.00;90665.44;5014070;28;20034;-65
2022/04/22 01:27:23;;;;;;;13.88;7.00;;;;;;;6.25;100.00;90661.28;5014230;28;20033;-65
2022/04/22 01:29:49;;;;;;;14.63;7.97;;;;;;;6.20;100.00;90647.41;5002197;28;20415;-66
2022/04/22 01:32:14;;;;;;;12.23;8.77;;;;;;;6.17;100.00;90632.91;5033574;28;20025;-66
2022/04/22 01:34:42;;;;;;;17.08;9.82;;;;;;;6.29;100.00;90646.44;5033674;28;20580;-66
2022/04/22 01:37:07;;;;;;;15.85;10.00;;;;;;;6.34;100.00;90642.16;5033819;28;20025;-66
2022/04/22 01:39:33;;;;;;;17.83;9.93;;;;;;;6.26;100.00;90625.09;5033548;28;20029;-66
2022/04/22 01:41:59;;;;;;;16.52;10.80;;;;;;;6.28;100.00;90621.09;5033376;28;20112;-66
2022/04/22 01:44:25;;;;;;;19.10;11.43;;;;;;;6.29;100.00;90629.81;5033337;28;20148;-66
2022/04/22 01:46:52;;;;;;;20.00;11.73;;;;;;;6.25;100.00;90626.19;5033388;28;20091;-66
2022/04/22 01:49:18;;;;;;;21.98;11.93;;;;;;;6.18;100.00;90605.44;5033359;28;20029;-66
2022/04/22 01:51:44;;;;;;;16.88;12.32;;;;;;;6.19;100.00;90604.34;5033384;28;20033;-66
2022/04/22 01:54:11;;;;;;;14.82;11.13;;;;;;;6.29;100.00;90604.16;5033226;28;20025;-65
2022/04/22 01:56:36;;;;;;;18.25;11.30;;;;;;;6.51;100.00;90581.63;5033252;28;20034;-66
2022/04/22 01:59:02;;;;;;;19.23;11.70;;;;;;;6.52;100.00;90591.91;5033192;28;20400;-66
2022/04/22 02:01:27;;;;;;;18.08;11.93;;;;;;;6.53;100.00;90590.03;5032682;28;20041;-66
2022/04/22 02:03:53;;;;;;;21.50;14.05;;;;;;;6.64;100.00;90586.16;5033020;28;20029;-66
2022/04/22 02:06:18;;;;;;;21.08;14.10;;;;;;;6.70;100.00;90592.09;5041971;28;20037;-65
2022/04/22 02:08:44;;;;;;;19.75;14.60;;;;;;;6.67;100.00;90580.25;5052915;28;20121;-65
2022/04/22 02:11:09;;;;;;;24.52;16.15;;;;;;;6.65;100.00;90584.28;5043268;28;20037;-65
2022/04/22 02:13:36;;;;;;;32.05;17.50;;;;;;;6.73;100.00;90600.22;5032766;28;20033;-65
2022/04/22 02:16:04;;;;;;;23.38;15.95;;;;;;;6.73;100.00;90602.09;5032856;28;20041;-65
2022/04/22 02:18:30;;;;;;;22.35;15.80;;;;;;;6.69;100.00;90607.19;5032750;28;20400;-67
2022/04/22 02:20:56;;;;;;;26.77;17.50;;;;;;;6.75;100.00;90627.16;5043588;28;20087;-65
2022/04/22 02:23:22;;;;;;;24.08;17.33;;;;;;;6.70;100.00;90624.59;5052602;28;20078;-65
2022/04/22 02:25:47;;;;;;;25.23;16.77;;;;;;;6.70;100.00;90614.03;5052673;28;20029;-65
2022/04/22 02:30:56;;;;;;;21.27;15.15;;;;;;;6.72;100.00;90611.09;5052817;28;20028;-65
2022/04/22 02:33:22;;;;;;;24.13;16.10;;;;;;;6.67;100.00;90603.28;5052398;28;20033;-65
2022/04/22 02:35:47;;;;;;;23.25;16.02;;;;;;;6.57;100.00;90589.16;5044064;28;20025;-66
2022/04/22 02:38:13;;;;;;;26.17;16.70;;;;;;;6.50;100.00;90598.56;5032443;28;20029;-66
2022/04/22 02:46:06;;;;;;;23.73;16.70;;;;;;;6.26;100.00;90617.19;5032587;28;20094;-66
2022/04/22 02:48:32;;;;;;;29.10;17.30;;;;;;;6.23;100.00;90625.69;5032295;28;20026;-66
2022/04/22 02:50:58;;;;;;;26.92;17.77;;;;;;;6.23;100.00;90629.09;5032515;28;20061;-65
2022/04/22 02:53:23;;;;;;;25.88;15.57;;;;;;;6.01;100.00;90623.66;5032143;28;20033;-65
2022/04/22 02:55:51;;;;;;;23.13;16.45;;;;;;;5.85;100.00;90628.38;5032067;28;20039;-65
2022/04/22 02:58:17;;;;;;;29.88;16.40;;;;;;;5.76;100.00;90624.00;5014350;28;20570;-66
2022/04/22 03:00:43;;;;;;;26.48;16.67;;;;;;;5.67;100.00;90632.56;5031825;28;20028;-66
2022/04/22 03:03:08;;;;;;;24.30;16.30;;;;;;;5.61;100.00;90631.06;5031921;28;20029;-65
2022/04/22 03:05:34;;;;;;;26.23;17.83;;;;;;;5.66;100.00;90619.66;5031904;28;20022;-66
2022/04/22 03:08:01;;;;;;;32.13;18.48;;;;;;;5.67;100.00;90637.84;5031786;28;20533;-65
2022/04/22 03:10:27;;;;;;;27.05;18.00;;;;;;;5.66;100.00;90638.13;5031626;28;20025;-66
2022/04/22 03:12:53;;;;;;;33.17;19.70;;;;;;;5.59;100.00;90651.69;5030916;28;20395;-65
2022/04/22 03:15:18;;;;;;;37.00;21.48;;;;;;;5.72;100.00;90661.53;5032052;28;20486;-66
2022/04/22 03:17:44;;;;;;;26.42;16.02;;;;;;;5.78;100.00;90656.19;5031758;28;20033;-66
2022/04/22 03:20:10;;;;;;;32.83;18.13;;;;;;;5.80;100.00;90660.09;5031618;28;20029;-66
2022/04/22 03:22:36;;;;;;;23.85;15.52;;;;;;;5.74;100.00;90658.59;5031403;28;20064;-66
2022/04/22 03:25:02;;;;;;;36.88;21.27;;;;;;;5.76;100.00;90658.31;5031628;28;20118;-65
2022/04/22 03:27:27;;;;;;;27.92;16.48;;;;;;;5.77;100.00;90654.59;5031634;28;20109;-66
2022/04/22 03:29:53;;;;;;;22.95;16.10;;;;;;;5.69;100.00;90651.56;5031558;28;20044;-66
2022/04/22 03:32:18;;;;;;;20.95;14.98;;;;;;;5.68;100.00;90657.09;5031309;28;20535;-66
2022/04/22 03:34:44;;;;;;;22.02;14.48;;;;;;;5.67;100.00;90650.25;5031319;28;20514;-66
2022/04/22 03:37:09;;;;;;;19.67;14.05;;;;;;;5.78;100.00;90645.63;5031516;28;20029;-66
2022/04/22 03:39:35;;;;;;;18.02;13.48;;;;;;;5.76;100.00;90642.47;5031361;28;20170;-66
2022/04/22 03:42:01;;;;;;;19.17;12.85;;;;;;;5.80;100.00;90660.09;5031358;28;20036;-66
2022/04/22 03:44:26;;;;;;;18.70;13.80;;;;;;;5.83;100.00;90675.34;5031431;28;20108;-66
2022/04/22 03:46:52;;;;;;;22.08;15.32;;;;;;;5.92;100.00;90675.53;5037428;28;20411;-66
2022/04/22 03:49:17;;;;;;;20.73;14.05;;;;;;;6.02;100.00;90662.19;5031360;28;20029;-65
2022/04/22 03:51:43;;;;;;;24.10;15.15;;;;;;;5.95;100.00;90673.09;5048809;28;20025;-66
2022/04/22 03:54:09;;;;;;;25.08;14.95;;;;;;;6.01;100.00;90665.91;5046077;28;20182;-65
2022/04/22 03:59:18;;;;;;;21.17;13.45;;;;;;;6.02;100.00;90683.31;5031161;28;20032;-65
2022/04/22 04:01:44;;;;;;;88.28;42.25;;;;;;;6.11;100.00;90696.66;5045221;28;20029;-66
2022/04/22 04:04:10;;;;;;;57.25;31.67;;;;;;;6.10;100.00;90690.59;5050985;28;20037;-65
2022/04/22 04:06:36;;;;;;;42.80;24.80;;;;;;;6.07;100.00;90690.38;5051284;28;20029;-65
2022/04/22 04:17:14;;;;;;;23.38;14.82;;;;;;;5.89;100.00;90657.59;5051032;28;20094;-65
2022/04/22 04:25:09;;;;;;;22.67;15.80;;;;;;;6.04;100.00;90677.75;5054405;28;20039;-66
2022/04/22 04:27:36;;;;;;;27.58;17.35;;;;;;;5.98;100.00;90671.75;5054696;28;20037;-66
2022/04/22 04:30:05;;;;;;;27.85;20.48;;;;;;;5.98;100.00;90677.03;5054816;28;20029;-66
2022/04/22 04:32:31;;;;;;;27.60;19.08;;;;;;;5.95;100.00;90670.47;5054612;28;20072;-66
2022/04/22 04:34:56;;;;;;;31.15;19.15;;;;;;;5.94;100.00;90665.47;5054769;28;20052;-65
2022/04/22 04:37:22;;;;;;;31.85;20.50;;;;;;;5.95;100.00;90659.91;5054693;28;20032;-66
2022/04/22 04:39:47;;;;;;;34.65;21.70;;;;;;;6.13;100.00;90668.09;5054638;28;20021;-65
2022/04/22 04:42:13;;;;;;;36.83;23.05;;;;;;;6.13;100.00;90666.22;5054573;28;20072;-65
2022/04/22 04:44:38;;;;;;;39.40;25.50;;;;;;;6.01;100.00;90652.72;5054591;28;20025;-65
2022/04/22 04:47:04;;;;;;;39.67;25.08;;;;;;;6.21;100.00;90659.53;5054623;28;20538;-65
2022/04/22 04:49:30;;;;;;;52.97;32.22;;;;;;;6.27;100.00;90674.22;5054476;28;20033;-65
2022/04/22 04:51:57;;;;;;;54.58;32.58;;;;;;;6.43;100.00;90683.47;5054368;28;20040;-65
2022/04/22 04:54:22;;;;;;;43.53;26.90;;;;;;;6.46;100.00;90672.31;5054388;28;20029;-65
2022/04/22 04:56:47;;;;;;;41.60;28.25;;;;;;;6.52;100.00;90659.81;5054288;28;20497;-65
2022/04/22 04:59:13;;;;;;;29.60;19.77;;;;;;;6.35;100.00;90643.72;5054254;28;20025;-65
2022/04/22 05:01:38;;;;;;;27.25;17.13;;;;;;;6.50;100.00;90654.03;5054189;28;20037;-66
2022/04/22 05:04:04;;;;;;;23.92;15.75;;;;;;;6.45;100.00;90649.59;5054152;28;20044;-65
2022/04/22 05:06:30;;;;;;;27.08;17.95;;;;;;;6.32;100.00;90633.75;5054051;28;20052;-65
2022/04/22 05:08:56;;;;;;;29.50;18.55;;;;;;;6.53;100.00;90638.38;5053893;28;20021;-65
2022/04/22 05:11:22;;;;;;;30.23;19.77;;;;;;;6.50;100.00;90638.19;5053816;28;20446;-65
2022/04/22 05:13:47;;;;;;;27.25;18.05;;;;;;;6.58;100.00;90642.78;5047992;28;20026;-66
2022/04/22 05:16:13;;;;;;;31.60;21.08;;;;;;;6.53;100.00;90634.97;5042615;28;20108;-66
2022/04/22 05:18:40;;;;;;;33.83;21.92;;;;;;;6.47;100.00;90646.66;5033813;28;20463;-66
2022/04/22 05:21:06;;;;;;;31.10;19.33;;;;;;;6.36;100.00;90650.56;5034093;28;20048;-68
2022/04/22 05:23:31;;;;;;;30.25;19.30;;;;;;;6.37;100.00;90662.72;5033728;28;20041;-67
2022/04/22 05:25:57;;;;;;;29.05;17.75;;;;;;;6.41;100.00;90659.19;5033773;28;20056;-67
2022/04/22 05:28:22;;;;;;;44.63;26.48;;;;;;;6.44;100.00;90632.19;5033668;28;20029;-66
2022/04/22 05:33:33;;;;;;;38.65;24.67;;;;;;;6.45;100.00;90617.13;5033613;28;20107;-67
2022/04/22 05:35:59;;;;;;;31.15;21.27;;;;;;;6.64;100.00;90631.06;5036686;28;20048;-66
2022/04/22 05:38:24;;;;;;;37.72;23.00;;;;;;;6.65;100.00;90610.72;5051622;28;20487;-66
2022/04/22 05:40:51;;;;;;;41.95;26.30;;;;;;;6.68;100.00;90605.63;5053480;28;20029;-67
2022/04/22 05:43:21;;;;;;;35.28;23.35;;;;;;;6.74;100.00;90553.44;5053659;28;20119;-66
2022/04/22 05:45:47;;;;;;;60.30;36.50;;;;;;;6.70;100.00;90547.94;5041459;28;20014;-67
2022/04/22 05:48:14;;;;;;;57.47;36.53;;;;;;;6.94;100.00;90558.31;5033938;28;20471;-67
2022/04/22 05:50:39;;;;;;;55.35;34.95;;;;;;;7.08;100.00;90550.38;5034445;28;20017;-66
2022/04/22 05:53:05;;;;;;;54.30;35.20;;;;;;;7.42;100.00;90537.47;5034478;28;20090;-66
2022/04/22 05:55:30;;;;;;;52.20;34.95;;;;;;;7.69;100.00;90536.59;5044683;28;20052;-66
2022/04/22 05:57:57;;;;;;;31.02;21.23;;;;;;;7.73;100.00;90518.22;5034664;28;20029;-66
2022/04/22 06:00:24;;;;;;;25.17;17.45;;;;;;;7.85;100.00;90493.88;5033966;28;20505;-66
2022/04/22 06:02:51;;;;;;;20.40;15.35;;;;;;;7.58;100.00;90473.63;5033769;28;20029;-66
2022/04/22 06:05:20;;;;;;;22.55;15.10;;;;;;;8.16;100.00;90478.00;5033735;28;20033;-67
2022/04/22 06:07:46;;;;;;;23.60;16.92;;;;;;;8.36;100.00;90478.28;5033562;28;20386;-66
2022/04/22 06:10:32;;;;;;;23.55;16.70;;;;;;;8.47;100.00;90473.47;5033147;28;20032;-67
2022/04/22 06:12:59;;;;;;;20.33;15.32;;;;;;;8.62;100.00;90470.41;5033083;28;20042;-67
2022/04/22 06:15:25;;;;;;;20.25;14.35;;;;;;;8.99;100.00;90484.22;5032991;28;20108;-66
2022/04/22 06:17:51;;;;;;;21.30;13.30;;;;;;;9.20;100.00;90460.56;5015129;28;20133;-66
2022/04/22 06:20:17;;;;;;;12.82;9.60;;;;;;;8.21;100.00;90449.50;5032706;28;20457;-66
2022/04/22 06:22:43;;;;;;;20.50;12.15;;;;;;;8.30;100.00;90462.78;5032691;28;20112;-66
2022/04/22 06:25:09;;;;;;;28.17;14.60;;;;;;;8.43;100.00;90483.13;5032683;28;20033;-66
2022/04/22 06:27:38;;;;;;;19.65;13.98;;;;;;;8.64;100.00;90462.94;5032657;28;20109;-66
2022/04/22 06:30:11;;;;;;;20.98;14.90;;;;;;;8.63;100.00;90476.50;5032777;28;20025;-66
2022/04/22 06:32:38;;;;;;;22.67;15.38;;;;;;;9.07;100.00;90480.81;5032386;28;20556;-66
2022/04/22 06:35:05;;;;;;;19.70;14.98;;;;;;;8.48;100.00;90484.88;5031725;28;20044;-66
2022/04/22 06:37:35;;;;;;;21.60;16.50;;;;;;;8.82;100.00;90478.88;5032596;28;20091;-66
2022/04/22 06:45:51;;;;;;;25.38;17.77;;;;;;;9.58;100.00;90468.69;5032638;28;20172;-67
2022/04/22 06:48:32;;;;;;;25.23;19.77;;;;;;;10.61;100.00;90469.59;5032226;28;20116;-67
2022/04/22 06:50:59;;;;;;;23.70;19.15;;;;;;;10.42;100.00;90477.94;5032072;28;20036;-68
2022/04/22 06:53:26;;;;;;;25.50;18.25;;;;;;;9.93;100.00;90473.94;5031974;28;20026;-68
2022/04/22 06:55:53;;;;;;;27.25;20.90;;;;;;;9.96;100.00;90473.34;5032232;28;20095;-67
2022/04/22 06:58:20;;;;;;;27.45;18.50;;;;;;;9.74;100.00;90491.00;5032370;28;20087;-68
2022/04/22 07:00:47;;;;;;;25.48;18.50;;;;;;;9.55;100.00;90479.94;5032046;28;20029;-68
2022/04/22 07:03:14;;;;;;;24.02;18.08;;;;;;;9.93;100.00;90492.53;5031848;28;20026;-67
2022/04/22 07:05:42;;;;;;;24.02;18.10;;;;;;;10.14;100.00;90490.81;5031683;28;20033;-67
2022/04/22 07:08:11;;;;;;;23.98;17.75;;;;;;;10.26;100.00;90482.22;5031794;28;20026;-67
2022/04/22 07:10:37;;;;;;;27.30;20.50;;;;;;;11.33;100.00;90474.66;5038741;28;20049;-67
2022/04/22 07:13:04;;;;;;;21.08;15.55;;;;;;;13.12;100.00;90473.56;5035265;28;20499;-67
2022/04/22 07:15:30;;;;;;;19.10;14.98;;;;;;;10.56;100.00;90483.03;5036463;28;20545;-67
2022/04/22 07:17:56;;;;;;;21.35;16.50;;;;;;;9.29;100.00;90464.75;5031601;28;20033;-67
2022/04/22 07:20:22;;;;;;;26.15;20.08;;;;;;;9.04;100.00;90480.66;5027355;28;20037;-67
2022/04/22 07:22:48;;;;;;;27.00;19.17;;;;;;;9.46;100.00;90489.75;5031385;28;20053;-66
2022/04/22 07:25:14;;;;;;;27.05;20.35;;;;;;;9.13;100.00;90479.56;5031438;28;20068;-65
2022/04/22 07:27:42;;;;;;;25.85;19.13;;;;;;;9.46;100.00;90476.47;5031381;28;20033;-65
2022/04/22 07:30:10;;;;;;;23.10;18.85;;;;;;;9.50;100.00;90501.34;5031250;28;20032;-64
2022/04/22 07:32:41;;;;;;;24.00;18.60;;;;;;;9.28;100.00;90484.44;5031140;28;20075;-65
2022/04/22 07:35:12;;;;;;;29.55;21.40;;;;;;;8.88;100.00;90472.38;5030672;28;20108;-67
2022/04/22 07:37:41;;;;;;;28.67;20.23;;;;;;;9.49;100.00;90481.19;5031609;28;20025;-65
2022/04/22 07:40:07;;;;;;;25.40;20.08;;;;;;;9.84;100.00;90466.00;5031034;28;20025;-66
2022/04/22 07:42:34;;;;;;;24.60;20.35;;;;;;;10.31;100.00;90469.53;5030947;28;20060;-66
2022/04/22 07:47:47;;;;;;;24.90;17.02;;;;;;;11.19;100.00;90454.72;5031045;28;20084;-68
2022/04/22 07:50:13;;;;;;;22.10;16.63;;;;;;;11.49;100.00;90477.53;5030640;28;20037;-66
2022/04/22 07:52:39;;;;;;;19.77;15.50;;;;;;;10.84;100.00;90454.13;5030954;28;20025;-67
2022/04/22 07:55:05;;;;;;;22.17;15.35;;;;;;;10.10;100.00;90458.78;5031019;28;20060;-66
2022/04/22 07:57:31;;;;;;;19.38;14.20;;;;;;;9.81;100.00;90446.16;5031034;28;20033;-66
2022/04/22 07:59:57;;;;;;;21.88;14.93;;;;;;;9.75;100.00;90447.41;5030435;28;20557;-67
2022/04/22 08:02:23;;;;;;;19.63;16.40;;;;;;;9.90;100.00;90462.09;5030683;28;20033;-68
2022/04/22 08:04:49;;;;;;;23.00;17.08;;;;;;;9.84;100.00;90445.53;5030614;28;20029;-69
2022/04/22 08:07:16;;;;;;;26.90;19.98;;;;;;;10.40;100.00;90430.38;5030826;28;20033;-66
2022/04/22 08:09:42;;;;;;;21.15;15.73;;;;;;;10.87;100.00;90472.91;5030848;28;20118;-68
2022/04/22 08:12:08;;;;;;;21.33;17.08;;;;;;;10.89;100.00;90454.75;5030453;28;20594;-67
2022/04/22 08:14:34;;;;;;;23.25;17.65;;;;;;;11.62;100.00;90463.19;5030668;28;20021;-66
2022/04/22 08:17:02;;;;;;;18.77;15.73;;;;;;;12.61;100.00;90475.75;5013142;28;20029;-67
2022/04/22 08:19:28;;;;;;;21.80;15.88;;;;;;;12.43;100.00;90447.69;5030136;28;20022;-67
2022/04/22 08:21:53;;;;;;;25.48;19.00;;;;;;;11.02;100.00;90472.34;5030500;28;20410;-67
2022/04/22 08:24:19;;;;;;;18.73;15.98;;;;;;;11.61;100.00;90485.59;5030597;28;20087;-67
2022/04/22 08:26:46;;;;;;;18.25;14.70;;;;;;;12.33;100.00;90480.16;5030762;28;20022;-67
2022/04/22 08:29:11;;;;;;;19.92;14.85;;;;;;;12.15;100.00;90475.00;5030709;28;20491;-67
2022/04/22 08:31:37;;;;;;;15.82;13.98;;;;;;;15.25;100.00;90475.97;5030692;28;20087;-67
2022/04/22 08:34:02;;;;;;;15.50;12.02;;;;;;;17.55;75.28;90481.63;5030463;28;20132;-67
2022/04/22 08:36:29;;;;;;;16.70;13.35;;;;;;;18.29;72.21;90470.34;5030101;28;20099;-68
2022/04/22 08:38:57;;;;;;;13.23;11.98;;;;;;;19.36;61.99;90479.56;5030506;28;20033;-66
2022/04/22 08:41:23;;;;;;;21.38;12.10;;;;;;;16.71;71.49;90482.50;5029736;28;20104;-67
2022/04/22 08:43:52;;;;;;;12.10;10.82;;;;;;;16.91;73.66;90451.03;5030435;28;20432;-67
2022/04/22 08:51:48;;;;;;;16.25;11.70;;;;;;;17.86;69.10;90463.66;5047350;28;20094;-66
2022/04/22 08:54:14;;;;;;;12.00;10.73;;;;;;;19.28;60.90;90467.94;5040907;28;20075;-68
2022/04/22 08:56:40;;;;;;;28.60;13.63;;;;;;;19.34;65.41;90444.88;5049303;28;20020;-68
2022/04/22 08:59:06;;;;;;;15.20;10.60;;;;;;;18.28;63.59;90466.09;5034667;28;20131;-66
2022/04/22 09:01:31;;;;;;;16.25;12.40;;;;;;;18.37;65.96;90449.66;5030791;28;20030;-67
2022/04/22 09:03:57;;;;;;;15.02;12.20;;;;;;;19.93;62.38;90426.81;5031984;28;20029;-68
2022/04/22 09:06:25;;;;;;;15.40;12.70;;;;;;;21.74;56.52;90437.31;5049789;28;20035;-67
2022/04/22 09:08:51;;;;;;;14.80;10.55;;;;;;;22.09;52.20;90430.31;5026791;28;20483;-67
2022/04/22 09:11:17;;;;;;;19.45;11.60;;;;;;;19.58;57.88;90410.41;5031345;28;20129;-67
2022/04/22 09:13:43;;;;;;;9.57;8.20;;;;;;;18.64;59.96;90405.38;5033842;28;20106;-67
2022/04/22 09:16:18;;;;;;;21.35;12.80;;;;;;;18.10;64.54;90406.66;5033883;28;20108;-65
2022/04/22 09:18:45;;;;;;;12.75;9.77;;;;;;;17.35;67.88;90396.78;5033775;28;20107;-65
2022/04/22 09:21:15;;;;;;;13.60;9.52;;;;;;;17.55;67.51;90384.78;5033325;28;20050;-64
2022/04/22 09:23:40;;;;;;;12.30;8.38;;;;;;;17.87;65.79;90398.69;5033775;28;20040;-67
2022/04/22 09:26:19;;;;;;;15.10;10.13;;;;;;;17.77;67.36;90380.50;5033563;28;20029;-67
2022/04/22 09:28:58;;;;;;;19.00;9.80;;;;;;;20.28;60.77;90396.47;5033550;28;20026;-67
2022/04/22 09:31:25;;;;;;;19.33;9.40;;;;;;;22.50;54.68;90381.00;5033353;28;20045;-69
2022/04/22 09:33:51;;;;;;;20.35;9.02;;;;;;;20.45;55.53;90388.84;5033223;28;20021;-67
2022/04/22 09:45:04;;;;;;;10.10;7.32;;;;;;;20.14;54.52;90382.91;5033533;28;20044;-68
2022/04/22 09:47:32;;;;;;;14.73;7.07;;;;;;;19.95;55.66;90375.91;5033358;28;20104;-68
2022/04/22 09:50:10;;;;;;;17.05;8.85;;;;;;;20.25;57.01;90377.56;5032954;28;20026;-69
2022/04/22 09:52:38;;;;;;;12.93;8.48;;;;;;;19.49;57.21;90374.84;5033211;28;20033;-67
2022/04/22 09:55:09;;;;;;;39.30;12.27;;;;;;;21.56;58.22;90371.59;5033184;28;20025;-67
2022/04/22 09:58:01;;;;;;;20.48;7.47;;;;;;;24.23;48.05;90389.03;5033071;28;20399;-69
2022/04/22 10:00:31;;;;;;;12.93;8.20;;;;;;;23.90;49.65;90385.09;5029083;28;20038;-64
2022/04/22 10:02:57;;;;;;;25.58;16.15;;;;;;;24.59;49.15;90364.91;5032879;28;20029;-69
2022/04/22 10:05:26;;;;;;;15.48;7.22;;;;;;;22.23;48.91;90384.22;5032506;28;20117;-67
2022/04/22 10:07:57;;;;;;;20.50;8.65;;;;;;;22.51;51.74;90372.47;5032784;28;20065;-68
2022/04/22 10:10:28;;;;;;;18.63;9.35;;;;;;;23.43;51.75;90360.28;5032671;28;20029;-69
2022/04/22 10:12:58;;;;;;;12.50;9.55;;;;;;;24.53;49.59;90358.41;5032724;28;20108;-67
2022/04/22 10:15:29;;;;;;;14.40;8.02;;;;;;;22.21;50.28;90340.47;5032778;28;20025;-68
2022/04/22 10:17:55;;;;;;;10.63;7.30;;;;;;;21.55;51.18;90361.16;5032838;28;20025;-69
2022/04/22 10:20:23;;;;;;;12.57;8.70;;;;;;;21.27;52.66;90365.41;5032160;28;20480;-67
2022/04/22 10:22:49;;;;;;;13.43;8.93;;;;;;;20.34;54.93;90359.06;5032219;28;20025;-66
2022/04/22 10:25:16;;;;;;;13.98;8.90;;;;;;;20.93;54.23;90327.16;5032470;28;20049;-66
2022/04/22 10:27:42;;;;;;;14.20;9.05;;;;;;;22.16;52.25;90330.06;5032561;28;20025;-66
2022/04/22 10:30:11;;;;;;;12.07;8.02;;;;;;;22.77;50.63;90325.09;5032603;28;20108;-67
2022/04/22 10:32:40;;;;;;;16.48;9.38;;;;;;;23.66;50.04;90337.19;5032248;28;20022;-65
2022/04/22 10:35:07;;;;;;;18.92;8.23;;;;;;;24.67;47.61;90335.69;5031893;28;20029;-65
2022/04/22 10:37:37;;;;;;;25.75;10.68;;;;;;;21.48;51.76;90305.09;5031879;28;20032;-64
2022/04/22 10:40:04;;;;;;;32.05;11.43;;;;;;;21.93;56.70;90313.47;5040913;28;20411;-64
2022/04/22 10:42:35;;;;;;;17.50;11.00;;;;;;;23.49;52.76;90323.38;5050513;28;20028;-64
2022/04/22 10:47:52;;;;;;;12.77;9.35;;;;;;;21.04;54.25;90298.19;5051129;28;20055;-65
2022/04/22 10:50:37;;;;;;;27.05;11.00;;;;;;;21.09;53.72;90308.59;5033771;28;20033;-64
2022/04/22 10:53:08;;;;;;;11.75;10.05;;;;;;;19.40;58.01;90324.69;5051687;28;20025;-64
2022/04/22 10:55:39;;;;;;;16.77;11.20;;;;;;;17.69;66.97;90324.28;5051068;28;20024;-64
2022/04/22 10:58:13;;;;;;;18.02;12.07;;;;;;;16.94;75.11;90317.88;5051137;28;20412;-64
2022/04/22 11:00:43;;;;;;;24.77;15.10;;;;;;;16.42;84.62;90314.75;5033503;28;20033;-64
2022/04/22 11:03:14;;;;;;;23.40;15.40;;;;;;;16.49;89.15;90319.44;5050667;28;20025;-64
2022/04/22 11:05:44;;;;;;;34.95;14.10;;;;;;;17.23;85.34;90308.31;5051574;28;20036;-63
2022/04/22 11:08:25;;;;;;;17.42;14.68;;;;;;;16.99;86.68;90307.59;5051301;28;20025;-65
2022/04/22 11:10:51;;;;;;;22.13;13.63;;;;;;;16.91;84.10;90307.84;5051262;28;20044;-64
2022/04/22 11:13:33;;;;;;;16.63;13.95;;;;;;;16.59;87.63;90307.34;5051362;28;20100;-65
2022/04/22 11:16:19;;;;;;;20.00;12.80;;;;;;;15.98;93.66;90298.25;5050889;28;20033;-64
2022/04/22 11:19:11;;;;;;;18.30;13.40;;;;;;;15.87;96.84;90294.59;5050752;28;20032;-65
2022/04/22 11:21:37;;;;;;;27.08;13.68;;;;;;;15.78;96.41;90294.03;5051302;28;20114;-65
2022/04/22 11:24:21;;;;;;;46.05;14.73;;;;;;;16.24;97.54;90302.91;5050955;28;20075;-65
2022/04/22 11:26:47;;;;;;;41.00;18.33;;;;;;;16.62;93.33;90290.50;5050988;28;20060;-65
2022/04/22 11:29:14;;;;;;;29.85;14.65;;;;;;;16.34;94.21;90283.53;5051110;28;20032;-65
2022/04/22 11:31:40;;;;;;;27.50;15.88;;;;;;;16.11;95.00;90291.59;5050650;28;20445;-65
2022/04/22 11:34:18;;;;;;;28.10;14.05;;;;;;;16.60;93.78;90282.03;5049520;28;20021;-64
2022/04/22 11:36:48;;;;;;;28.05;15.38;;;;;;;16.83;89.27;90282.78;5050883;28;20032;-65
2022/04/22 11:39:17;;;;;;;59.38;18.67;;;;;;;16.27;92.57;90272.69;5050530;28;20410;-64
2022/04/22 11:41:59;;;;;;;73.70;26.13;;;;;;;17.19;89.73;90275.22;5050699;28;20029;-65
2022/04/22 11:44:25;;;;;;;20.50;16.95;;;;;;;17.52;85.97;90264.50;5050677;28;20029;-65
2022/04/22 11:46:51;;;;;;;18.90;13.20;;;;;;;19.63;75.45;90264.31;5050390;28;20021;-65
2022/04/22 11:49:18;;;;;;;19.73;12.63;;;;;;;20.71;69.41;90245.28;5050758;28;20024;-65
2022/04/22 11:51:44;;;;;;;23.83;13.23;;;;;;;20.62;66.58;90259.16;5050794;28;20040;-65
2022/04/22 11:54:09;;;;;;;28.85;14.13;;;;;;;20.98;64.48;90259.16;5050326;28;20510;-65
2022/04/22 11:56:37;;;;;;;22.25;14.20;;;;;;;20.88;63.82;90235.63;5050243;28;20072;-65
2022/04/22 11:59:03;;;;;;;21.77;14.13;;;;;;;19.02;69.85;90247.03;5050467;28;20032;-65
2022/04/22 12:09:57;;;;;;;24.42;16.00;;;;;;;16.82;86.63;90245.53;5049989;28;20462;-65
2022/04/22 12:12:24;;;;;;;21.25;14.40;;;;;;;19.19;74.32;90253.69;5032575;28;20056;-65
2022/04/22 12:15:07;;;;;;;28.17;14.57;;;;;;;18.59;72.62;90262.88;5050821;28;20079;-65
2022/04/22 12:17:32;;;;;;;34.42;16.33;;;;;;;18.39;76.27;90240.78;5050470;28;20469;-65
2022/04/22 12:19:58;;;;;;;23.83;17.88;;;;;;;18.35;79.62;90225.75;5051028;28;20487;-65
2022/04/22 12:22:25;;;;;;;26.55;14.35;;;;;;;17.92;79.79;90225.38;5050814;28;20029;-65
2022/04/22 12:25:08;;;;;;;43.33;13.75;;;;;;;18.22;77.56;90225.25;5042255;28;20446;-65
2022/04/22 12:27:34;;;;;;;;;;;;;;;18.81;75.87;90213.44;5051169;28;20029;-66
2022/04/22 12:30:08;;;;;;;39.20;15.70;;;;;;;18.59;76.93;90210.91;5050444;28;19912;-65